sensor_id;sensor_type;location;lat;lon;timestamp;P1;durP1;ratioP1;P2;durP2;ratioP2
58294;SDS011;45705;55.592;37.460;2022-09-09T00:02:22;5.43;;;2.60;;
58294;SDS011;45705;55.592;37.460;2022-09-09T00:04:32;4.15;;;2.92;;
58294;SDS011;45705;55.592;37.460;2022-09-09T00:15:33;4.80;;;2.72;;
58294;SDS011;45705;55.592;37.460;2022-09-09T00:23:35;4.57;;;2.88;;
58294;SDS011;45705;55.592;37.460;2022-09-09T00:31:33;12.15;;;3.30;;
58294;SDS011;45705;55.592;37.460;2022-09-09T00:34:03;5.68;;;3.28;;
58294;SDS011;45705;55.592;37.460;2022-09-09T00:36:36;6.43;;;3.55;;
58294;SDS011;45705;55.592;37.460;2022-09-09T00:39:03;7.05;;;3.55;;
58294;SDS011;45705;55.592;37.460;2022-09-09T00:44:31;5.43;;;3.42;;
58294;SDS011;45705;55.592;37.460;2022-09-09T00:59:51;5.25;;;3.58;;
58294;SDS011;45705;55.592;37.460;2022-09-09T01:02:30;7.75;;;3.90;;
58294;SDS011;45705;55.592;37.460;2022-09-09T01:14:23;7.40;;;4.32;;
58294;SDS011;45705;55.592;37.460;2022-09-09T01:16:59;5.30;;;3.55;;
58294;SDS011;45705;55.592;37.460;2022-09-09T01:28:08;4.80;;;3.30;;
58294;SDS011;45705;55.592;37.460;2022-09-09T01:30:38;5.53;;;3.00;;
58294;SDS011;45705;55.592;37.460;2022-09-09T01:33:10;5.05;;;2.97;;
58294;SDS011;45705;55.592;37.460;2022-09-09T01:35:41;5.93;;;2.83;;
58294;SDS011;45705;55.592;37.460;2022-09-09T01:38:14;5.60;;;2.90;;
58294;SDS011;45705;55.592;37.460;2022-09-09T01:40:41;5.30;;;3.08;;
58294;SDS011;45705;55.592;37.460;2022-09-09T01:43:07;6.15;;;3.28;;
58294;SDS011;45705;55.592;37.460;2022-09-09T01:45:34;5.10;;;3.20;;
58294;SDS011;45705;55.592;37.460;2022-09-09T01:48:00;4.18;;;2.90;;
58294;SDS011;45705;55.592;37.460;2022-09-09T01:50:50;6.57;;;2.90;;
58294;SDS011;45705;55.592;37.460;2022-09-09T01:53:18;4.25;;;3.40;;
58294;SDS011;45705;55.592;37.460;2022-09-09T01:55:52;5.87;;;3.37;;
58294;SDS011;45705;55.592;37.460;2022-09-09T02:04:36;4.57;;;3.00;;
58294;SDS011;45705;55.592;37.460;2022-09-09T02:07:27;6.88;;;3.58;;
58294;SDS011;45705;55.592;37.460;2022-09-09T02:12:48;4.78;;;3.13;;
58294;SDS011;45705;55.592;37.460;2022-09-09T02:18:00;5.25;;;3.50;;
58294;SDS011;45705;55.592;37.460;2022-09-09T02:20:31;6.30;;;3.40;;
58294;SDS011;45705;55.592;37.460;2022-09-09T02:22:59;5.90;;;3.20;;
58294;SDS011;45705;55.592;37.460;2022-09-09T02:25:28;7.78;;;3.55;;
58294;SDS011;45705;55.592;37.460;2022-09-09T02:28:06;5.57;;;3.67;;
58294;SDS011;45705;55.592;37.460;2022-09-09T02:30:35;5.50;;;3.80;;
58294;SDS011;45705;55.592;37.460;2022-09-09T02:33:05;5.95;;;3.70;;
58294;SDS011;45705;55.592;37.460;2022-09-09T02:35:48;7.85;;;3.53;;
58294;SDS011;45705;55.592;37.460;2022-09-09T02:38:18;5.07;;;3.35;;
58294;SDS011;45705;55.592;37.460;2022-09-09T02:41:05;3.85;;;3.40;;
58294;SDS011;45705;55.592;37.460;2022-09-09T02:43:33;4.35;;;3.50;;
58294;SDS011;45705;55.592;37.460;2022-09-09T02:54:27;7.53;;;4.10;;
58294;SDS011;45705;55.592;37.460;2022-09-09T02:59:48;7.85;;;4.03;;
58294;SDS011;45705;55.592;37.460;2022-09-09T03:02:17;6.15;;;3.70;;
58294;SDS011;45705;55.592;37.460;2022-09-09T03:04:47;7.05;;;4.00;;
58294;SDS011;45705;55.592;37.460;2022-09-09T03:07:17;5.93;;;4.30;;
58294;SDS011;45705;55.592;37.460;2022-09-09T03:09:45;5.10;;;3.88;;
58294;SDS011;45705;55.592;37.460;2022-09-09T03:12:11;8.88;;;4.50;;
58294;SDS011;45705;55.592;37.460;2022-09-09T03:14:37;8.23;;;5.30;;
58294;SDS011;45705;55.592;37.460;2022-09-09T03:17:04;11.40;;;5.53;;
58294;SDS011;45705;55.592;37.460;2022-09-09T03:19:35;9.57;;;5.13;;
58294;SDS011;45705;55.592;37.460;2022-09-09T03:22:01;6.95;;;4.18;;
58294;SDS011;45705;55.592;37.460;2022-09-09T03:26:56;7.22;;;4.43;;
58294;SDS011;45705;55.592;37.460;2022-09-09T03:29:22;6.85;;;4.70;;
58294;SDS011;45705;55.592;37.460;2022-09-09T03:31:51;10.65;;;5.43;;
58294;SDS011;45705;55.592;37.460;2022-09-09T03:34:17;9.55;;;4.97;;
58294;SDS011;45705;55.592;37.460;2022-09-09T03:36:42;11.90;;;6.05;;
58294;SDS011;45705;55.592;37.460;2022-09-09T03:39:09;10.20;;;5.60;;
58294;SDS011;45705;55.592;37.460;2022-09-09T03:41:35;9.15;;;5.03;;
58294;SDS011;45705;55.592;37.460;2022-09-09T03:44:03;7.88;;;5.43;;
58294;SDS011;45705;55.592;37.460;2022-09-09T03:46:34;6.38;;;4.68;;
58294;SDS011;45705;55.592;37.460;2022-09-09T03:49:00;5.72;;;4.13;;
58294;SDS011;45705;55.592;37.460;2022-09-09T03:51:26;6.13;;;4.10;;
58294;SDS011;45705;55.592;37.460;2022-09-09T03:53:53;7.53;;;4.07;;
58294;SDS011;45705;55.592;37.460;2022-09-09T03:56:20;8.35;;;3.58;;
58294;SDS011;45705;55.592;37.460;2022-09-09T03:58:47;6.38;;;3.97;;
58294;SDS011;45705;55.592;37.460;2022-09-09T04:01:13;11.32;;;4.22;;
58294;SDS011;45705;55.592;37.460;2022-09-09T04:03:41;9.45;;;3.70;;
58294;SDS011;45705;55.592;37.460;2022-09-09T04:06:08;17.52;;;10.40;;
58294;SDS011;45705;55.592;37.460;2022-09-09T04:08:37;15.25;;;7.72;;
58294;SDS011;45705;55.592;37.460;2022-09-09T04:11:04;13.23;;;4.40;;
58294;SDS011;45705;55.592;37.460;2022-09-09T04:13:32;6.82;;;4.50;;
58294;SDS011;45705;55.592;37.460;2022-09-09T04:16:00;6.50;;;3.83;;
58294;SDS011;45705;55.592;37.460;2022-09-09T04:18:28;8.77;;;4.00;;
58294;SDS011;45705;55.592;37.460;2022-09-09T04:20:54;6.65;;;4.00;;
58294;SDS011;45705;55.592;37.460;2022-09-09T04:23:24;11.15;;;4.80;;
58294;SDS011;45705;55.592;37.460;2022-09-09T04:25:53;8.02;;;5.15;;
58294;SDS011;45705;55.592;37.460;2022-09-09T04:28:21;11.88;;;4.88;;
58294;SDS011;45705;55.592;37.460;2022-09-09T04:33:16;13.48;;;7.40;;
58294;SDS011;45705;55.592;37.460;2022-09-09T04:35:46;16.13;;;6.43;;
58294;SDS011;45705;55.592;37.460;2022-09-09T04:38:14;10.30;;;4.30;;
58294;SDS011;45705;55.592;37.460;2022-09-09T04:40:42;9.70;;;4.43;;
58294;SDS011;45705;55.592;37.460;2022-09-09T04:43:09;16.65;;;5.85;;
58294;SDS011;45705;55.592;37.460;2022-09-09T04:45:36;8.13;;;4.50;;
58294;SDS011;45705;55.592;37.460;2022-09-09T04:48:02;14.52;;;4.97;;
58294;SDS011;45705;55.592;37.460;2022-09-09T04:50:29;11.38;;;4.80;;
58294;SDS011;45705;55.592;37.460;2022-09-09T04:53:03;14.52;;;5.55;;
58294;SDS011;45705;55.592;37.460;2022-09-09T04:55:35;14.07;;;5.40;;
58294;SDS011;45705;55.592;37.460;2022-09-09T04:58:04;12.35;;;5.78;;
58294;SDS011;45705;55.592;37.460;2022-09-09T05:00:32;9.20;;;5.20;;
58294;SDS011;45705;55.592;37.460;2022-09-09T05:03:04;13.27;;;4.78;;
58294;SDS011;45705;55.592;37.460;2022-09-09T05:05:31;13.48;;;5.95;;
58294;SDS011;45705;55.592;37.460;2022-09-09T05:08:02;12.85;;;4.55;;
58294;SDS011;45705;55.592;37.460;2022-09-09T05:10:34;7.22;;;3.25;;
58294;SDS011;45705;55.592;37.460;2022-09-09T05:13:03;6.80;;;2.67;;
58294;SDS011;45705;55.592;37.460;2022-09-09T05:15:30;8.48;;;3.05;;
58294;SDS011;45705;55.592;37.460;2022-09-09T05:18:00;10.63;;;3.10;;
58294;SDS011;45705;55.592;37.460;2022-09-09T05:20:28;6.10;;;3.15;;
58294;SDS011;45705;55.592;37.460;2022-09-09T05:22:55;9.30;;;2.67;;
58294;SDS011;45705;55.592;37.460;2022-09-09T05:25:26;5.45;;;2.80;;
58294;SDS011;45705;55.592;37.460;2022-09-09T05:27:53;4.13;;;2.50;;
58294;SDS011;45705;55.592;37.460;2022-09-09T05:30:19;6.60;;;2.58;;
58294;SDS011;45705;55.592;37.460;2022-09-09T05:32:45;6.90;;;3.10;;
58294;SDS011;45705;55.592;37.460;2022-09-09T05:35:14;7.90;;;3.63;;
58294;SDS011;45705;55.592;37.460;2022-09-09T05:37:41;7.50;;;3.33;;
58294;SDS011;45705;55.592;37.460;2022-09-09T05:40:07;6.70;;;4.03;;
58294;SDS011;45705;55.592;37.460;2022-09-09T05:42:33;6.85;;;4.35;;
58294;SDS011;45705;55.592;37.460;2022-09-09T05:45:00;7.20;;;3.35;;
58294;SDS011;45705;55.592;37.460;2022-09-09T05:47:26;5.82;;;2.95;;
58294;SDS011;45705;55.592;37.460;2022-09-09T05:49:54;7.95;;;3.05;;
58294;SDS011;45705;55.592;37.460;2022-09-09T05:52:20;6.68;;;3.28;;
58294;SDS011;45705;55.592;37.460;2022-09-09T05:54:48;4.45;;;2.03;;
58294;SDS011;45705;55.592;37.460;2022-09-09T05:57:13;3.83;;;1.95;;
58294;SDS011;45705;55.592;37.460;2022-09-09T05:59:40;5.05;;;1.98;;
58294;SDS011;45705;55.592;37.460;2022-09-09T06:02:05;3.15;;;1.70;;
58294;SDS011;45705;55.592;37.460;2022-09-09T06:04:35;2.47;;;1.80;;
58294;SDS011;45705;55.592;37.460;2022-09-09T06:07:02;2.42;;;2.00;;
58294;SDS011;45705;55.592;37.460;2022-09-09T06:09:28;3.20;;;1.70;;
58294;SDS011;45705;55.592;37.460;2022-09-09T06:11:55;3.20;;;1.98;;
58294;SDS011;45705;55.592;37.460;2022-09-09T06:14:26;4.53;;;2.42;;
58294;SDS011;45705;55.592;37.460;2022-09-09T06:16:55;5.47;;;1.95;;
58294;SDS011;45705;55.592;37.460;2022-09-09T06:19:25;11.48;;;5.32;;
58294;SDS011;45705;55.592;37.460;2022-09-09T06:21:54;7.55;;;3.05;;
58294;SDS011;45705;55.592;37.460;2022-09-09T06:24:20;6.03;;;3.35;;
58294;SDS011;45705;55.592;37.460;2022-09-09T06:26:46;2.20;;;2.00;;
58294;SDS011;45705;55.592;37.460;2022-09-09T06:29:18;3.08;;;1.90;;
58294;SDS011;45705;55.592;37.460;2022-09-09T06:31:44;3.78;;;2.00;;
58294;SDS011;45705;55.592;37.460;2022-09-09T06:34:15;4.78;;;1.67;;
58294;SDS011;45705;55.592;37.460;2022-09-09T06:36:45;5.72;;;1.80;;
58294;SDS011;45705;55.592;37.460;2022-09-09T06:39:12;8.07;;;2.00;;
58294;SDS011;45705;55.592;37.460;2022-09-09T06:41:39;3.72;;;2.25;;
58294;SDS011;45705;55.592;37.460;2022-09-09T06:44:08;3.78;;;1.42;;
58294;SDS011;45705;55.592;37.460;2022-09-09T06:46:39;5.70;;;1.90;;
58294;SDS011;45705;55.592;37.460;2022-09-09T06:49:07;5.32;;;2.05;;
58294;SDS011;45705;55.592;37.460;2022-09-09T06:51:35;6.05;;;1.98;;
58294;SDS011;45705;55.592;37.460;2022-09-09T06:54:04;4.97;;;1.83;;
58294;SDS011;45705;55.592;37.460;2022-09-09T06:59:00;4.38;;;1.90;;
58294;SDS011;45705;55.592;37.460;2022-09-09T07:01:30;8.00;;;2.33;;
58294;SDS011;45705;55.592;37.460;2022-09-09T07:04:00;5.88;;;2.47;;
58294;SDS011;45705;55.592;37.460;2022-09-09T07:06:34;13.00;;;5.68;;
58294;SDS011;45705;55.592;37.460;2022-09-09T07:09:03;9.88;;;7.07;;
58294;SDS011;45705;55.592;37.460;2022-09-09T07:11:33;8.82;;;5.78;;
58294;SDS011;45705;55.592;37.460;2022-09-09T07:14:07;4.78;;;3.53;;
58294;SDS011;45705;55.592;37.460;2022-09-09T07:16:34;4.88;;;1.50;;
58294;SDS011;45705;55.592;37.460;2022-09-09T07:19:03;8.35;;;2.22;;
58294;SDS011;45705;55.592;37.460;2022-09-09T07:21:29;3.92;;;1.73;;
58294;SDS011;45705;55.592;37.460;2022-09-09T07:23:57;2.35;;;2.00;;
58294;SDS011;45705;55.592;37.460;2022-09-09T07:26:24;12.52;;;2.55;;
58294;SDS011;45705;55.592;37.460;2022-09-09T07:28:53;2.95;;;1.30;;
58294;SDS011;45705;55.592;37.460;2022-09-09T07:31:21;2.97;;;1.60;;
58294;SDS011;45705;55.592;37.460;2022-09-09T07:33:58;3.83;;;2.10;;
58294;SDS011;45705;55.592;37.460;2022-09-09T07:36:26;9.38;;;2.42;;
58294;SDS011;45705;55.592;37.460;2022-09-09T07:38:56;10.52;;;2.35;;
58294;SDS011;45705;55.592;37.460;2022-09-09T07:43:55;8.07;;;1.98;;
58294;SDS011;45705;55.592;37.460;2022-09-09T07:46:24;9.40;;;3.05;;
58294;SDS011;45705;55.592;37.460;2022-09-09T07:48:52;2.92;;;1.40;;
58294;SDS011;45705;55.592;37.460;2022-09-09T07:51:26;5.25;;;1.30;;
58294;SDS011;45705;55.592;37.460;2022-09-09T07:53:59;3.47;;;1.45;;
58294;SDS011;45705;55.592;37.460;2022-09-09T07:56:28;3.08;;;1.40;;
58294;SDS011;45705;55.592;37.460;2022-09-09T07:58:57;9.07;;;1.60;;
58294;SDS011;45705;55.592;37.460;2022-09-09T08:01:26;6.93;;;1.50;;
58294;SDS011;45705;55.592;37.460;2022-09-09T08:03:59;3.17;;;1.25;;
58294;SDS011;45705;55.592;37.460;2022-09-09T08:06:28;4.20;;;1.52;;
58294;SDS011;45705;55.592;37.460;2022-09-09T08:08:56;5.55;;;1.65;;
58294;SDS011;45705;55.592;37.460;2022-09-09T08:11:23;4.65;;;1.60;;
58294;SDS011;45705;55.592;37.460;2022-09-09T08:13:50;4.22;;;1.58;;
58294;SDS011;45705;55.592;37.460;2022-09-09T08:16:18;1.83;;;1.27;;
58294;SDS011;45705;55.592;37.460;2022-09-09T08:18:49;2.97;;;1.52;;
58294;SDS011;45705;55.592;37.460;2022-09-09T08:21:17;9.18;;;1.67;;
58294;SDS011;45705;55.592;37.460;2022-09-09T08:23:46;4.82;;;1.50;;
58294;SDS011;45705;55.592;37.460;2022-09-09T08:26:15;7.50;;;3.00;;
58294;SDS011;45705;55.592;37.460;2022-09-09T08:28:44;8.23;;;3.83;;
58294;SDS011;45705;55.592;37.460;2022-09-09T08:31:14;15.32;;;7.88;;
58294;SDS011;45705;55.592;37.460;2022-09-09T08:33:44;14.05;;;4.63;;
58294;SDS011;45705;55.592;37.460;2022-09-09T08:36:19;4.30;;;1.65;;
58294;SDS011;45705;55.592;37.460;2022-09-09T08:38:50;4.25;;;2.10;;
58294;SDS011;45705;55.592;37.460;2022-09-09T08:41:34;11.30;;;1.60;;
58294;SDS011;45705;55.592;37.460;2022-09-09T08:52:38;6.38;;;1.52;;
58294;SDS011;45705;55.592;37.460;2022-09-09T08:55:20;4.32;;;1.30;;
58294;SDS011;45705;55.592;37.460;2022-09-09T08:57:50;3.63;;;1.30;;
58294;SDS011;45705;55.592;37.460;2022-09-09T09:00:18;5.07;;;1.38;;
58294;SDS011;45705;55.592;37.460;2022-09-09T09:03:03;4.60;;;1.65;;
58294;SDS011;45705;55.592;37.460;2022-09-09T09:05:37;7.82;;;1.60;;
58294;SDS011;45705;55.592;37.460;2022-09-09T09:10:50;3.92;;;1.50;;
58294;SDS011;45705;55.592;37.460;2022-09-09T09:13:31;1.65;;;1.33;;
58294;SDS011;45705;55.592;37.460;2022-09-09T09:19:18;5.22;;;1.42;;
58294;SDS011;45705;55.592;37.460;2022-09-09T09:27:30;1.73;;;1.20;;
58294;SDS011;45705;55.592;37.460;2022-09-09T09:30:15;1.40;;;1.30;;
58294;SDS011;45705;55.592;37.460;2022-09-09T09:32:52;1.67;;;1.20;;
58294;SDS011;45705;55.592;37.460;2022-09-09T09:35:21;2.92;;;1.17;;
58294;SDS011;45705;55.592;37.460;2022-09-09T09:37:47;2.97;;;1.10;;
58294;SDS011;45705;55.592;37.460;2022-09-09T09:40:18;3.92;;;1.55;;
58294;SDS011;45705;55.592;37.460;2022-09-09T09:42:52;5.30;;;1.35;;
58294;SDS011;45705;55.592;37.460;2022-09-09T09:45:34;3.83;;;1.55;;
58294;SDS011;45705;55.592;37.460;2022-09-09T09:48:09;2.93;;;1.17;;
58294;SDS011;45705;55.592;37.460;2022-09-09T09:50:48;6.00;;;1.50;;
58294;SDS011;45705;55.592;37.460;2022-09-09T09:56:06;1.98;;;1.30;;
58294;SDS011;45705;55.592;37.460;2022-09-09T09:58:47;3.67;;;1.50;;
58294;SDS011;45705;55.592;37.460;2022-09-09T10:01:28;3.08;;;1.42;;
58294;SDS011;45705;55.592;37.460;2022-09-09T10:04:13;1.77;;;1.10;;
58294;SDS011;45705;55.592;37.460;2022-09-09T10:06:41;3.10;;;1.10;;
58294;SDS011;45705;55.592;37.460;2022-09-09T10:14:33;3.03;;;1.20;;
58294;SDS011;45705;55.592;37.460;2022-09-09T10:19:59;2.70;;;1.20;;
58294;SDS011;45705;55.592;37.460;2022-09-09T10:22:39;4.18;;;1.50;;
58294;SDS011;45705;55.592;37.460;2022-09-09T10:30:19;7.25;;;2.08;;
58294;SDS011;45705;55.592;37.460;2022-09-09T10:32:51;5.68;;;1.33;;
58294;SDS011;45705;55.592;37.460;2022-09-09T10:35:25;2.70;;;1.13;;
58294;SDS011;45705;55.592;37.460;2022-09-09T10:43:29;9.15;;;1.67;;
58294;SDS011;45705;55.592;37.460;2022-09-09T10:51:49;3.20;;;1.20;;
58294;SDS011;45705;55.592;37.460;2022-09-09T10:57:04;2.85;;;1.33;;
58294;SDS011;45705;55.592;37.460;2022-09-09T10:59:43;1.92;;;1.33;;
58294;SDS011;45705;55.592;37.460;2022-09-09T11:02:30;4.50;;;1.50;;
58294;SDS011;45705;55.592;37.460;2022-09-09T11:07:34;3.13;;;1.30;;
58294;SDS011;45705;55.592;37.460;2022-09-09T11:10:02;3.13;;;1.65;;
58294;SDS011;45705;55.592;37.460;2022-09-09T11:12:37;2.88;;;1.55;;
58294;SDS011;45705;55.592;37.460;2022-09-09T11:15:14;4.82;;;1.40;;
58294;SDS011;45705;55.592;37.460;2022-09-09T11:17:47;4.90;;;1.90;;
58294;SDS011;45705;55.592;37.460;2022-09-09T11:20:17;4.75;;;1.60;;
58294;SDS011;45705;55.592;37.460;2022-09-09T11:22:48;5.47;;;1.73;;
58294;SDS011;45705;55.592;37.460;2022-09-09T11:25:21;7.35;;;1.90;;
58294;SDS011;45705;55.592;37.460;2022-09-09T11:41:10;3.17;;;1.33;;
58294;SDS011;45705;55.592;37.460;2022-09-09T11:43:40;3.80;;;1.35;;
58294;SDS011;45705;55.592;37.460;2022-09-09T11:46:08;5.05;;;1.30;;
58294;SDS011;45705;55.592;37.460;2022-09-09T11:53:28;3.22;;;1.40;;
58294;SDS011;45705;55.592;37.460;2022-09-09T11:56:00;1.38;;;1.02;;
58294;SDS011;45705;55.592;37.460;2022-09-09T11:58:32;3.58;;;1.15;;
58294;SDS011;45705;55.592;37.460;2022-09-09T12:01:29;2.03;;;1.02;;
58294;SDS011;45705;55.592;37.460;2022-09-09T12:04:07;1.05;;;0.95;;
58294;SDS011;45705;55.592;37.460;2022-09-09T12:12:04;2.92;;;1.77;;
58294;SDS011;45705;55.592;37.460;2022-09-09T12:14:35;4.72;;;2.25;;
58294;SDS011;45705;55.592;37.460;2022-09-09T12:30:52;2.38;;;1.35;;
58294;SDS011;45705;55.592;37.460;2022-09-09T12:33:36;5.97;;;1.67;;
58294;SDS011;45705;55.592;37.460;2022-09-09T12:36:11;8.45;;;1.50;;
58294;SDS011;45705;55.592;37.460;2022-09-09T12:38:40;2.75;;;1.33;;
58294;SDS011;45705;55.592;37.460;2022-09-09T12:41:20;5.55;;;1.65;;
58294;SDS011;45705;55.592;37.460;2022-09-09T12:43:48;1.40;;;0.82;;
58294;SDS011;45705;55.592;37.460;2022-09-09T12:46:21;4.85;;;1.15;;
58294;SDS011;45705;55.592;37.460;2022-09-09T12:49:29;2.00;;;1.23;;
58294;SDS011;45705;55.592;37.460;2022-09-09T12:51:53;1.67;;;1.30;;
58294;SDS011;45705;55.592;37.460;2022-09-09T12:54:22;7.13;;;1.42;;
58294;SDS011;45705;55.592;37.460;2022-09-09T12:56:48;2.22;;;1.25;;
58294;SDS011;45705;55.592;37.460;2022-09-09T12:59:25;1.95;;;1.42;;
58294;SDS011;45705;55.592;37.460;2022-09-09T13:01:59;1.92;;;1.02;;
58294;SDS011;45705;55.592;37.460;2022-09-09T13:04:25;1.75;;;1.15;;
58294;SDS011;45705;55.592;37.460;2022-09-09T13:06:51;5.57;;;1.17;;
58294;SDS011;45705;55.592;37.460;2022-09-09T13:09:20;3.03;;;1.02;;
58294;SDS011;45705;55.592;37.460;2022-09-09T13:11:47;1.13;;;0.88;;
58294;SDS011;45705;55.592;37.460;2022-09-09T13:14:18;2.65;;;1.02;;
58294;SDS011;45705;55.592;37.460;2022-09-09T13:16:59;1.55;;;0.95;;
58294;SDS011;45705;55.592;37.460;2022-09-09T13:19:26;1.08;;;0.85;;
58294;SDS011;45705;55.592;37.460;2022-09-09T13:21:57;5.38;;;1.25;;
58294;SDS011;45705;55.592;37.460;2022-09-09T13:27:03;4.93;;;1.10;;
58294;SDS011;45705;55.592;37.460;2022-09-09T13:29:51;9.05;;;3.35;;
58294;SDS011;45705;55.592;37.460;2022-09-09T13:32:21;2.33;;;0.95;;
58294;SDS011;45705;55.592;37.460;2022-09-09T13:34:54;3.88;;;1.20;;
58294;SDS011;45705;55.592;37.460;2022-09-09T13:39:53;3.25;;;0.93;;
58294;SDS011;45705;55.592;37.460;2022-09-09T13:42:29;2.88;;;1.40;;
58294;SDS011;45705;55.592;37.460;2022-09-09T13:44:57;2.50;;;1.10;;
58294;SDS011;45705;55.592;37.460;2022-09-09T13:50:45;3.28;;;1.50;;
58294;SDS011;45705;55.592;37.460;2022-09-09T13:52:51;1.40;;;1.30;;
58294;SDS011;45705;55.592;37.460;2022-09-09T13:55:18;2.20;;;1.10;;
58294;SDS011;45705;55.592;37.460;2022-09-09T13:57:57;3.38;;;1.40;;
58294;SDS011;45705;55.592;37.460;2022-09-09T14:02:51;7.25;;;1.10;;
58294;SDS011;45705;55.592;37.460;2022-09-09T14:05:17;2.22;;;1.40;;
58294;SDS011;45705;55.592;37.460;2022-09-09T14:07:44;3.90;;;1.45;;
58294;SDS011;45705;55.592;37.460;2022-09-09T14:10:11;4.03;;;1.50;;
58294;SDS011;45705;55.592;37.460;2022-09-09T14:12:37;3.05;;;1.67;;
58294;SDS011;45705;55.592;37.460;2022-09-09T14:15:04;2.45;;;1.42;;
58294;SDS011;45705;55.592;37.460;2022-09-09T14:17:30;1.85;;;1.27;;
58294;SDS011;45705;55.592;37.460;2022-09-09T14:19:57;3.22;;;1.30;;
58294;SDS011;45705;55.592;37.460;2022-09-09T14:22:23;5.97;;;1.67;;
58294;SDS011;45705;55.592;37.460;2022-09-09T14:24:49;3.13;;;1.60;;
58294;SDS011;45705;55.592;37.460;2022-09-09T14:27:16;1.63;;;1.20;;
58294;SDS011;45705;55.592;37.460;2022-09-09T14:29:44;3.33;;;1.15;;
58294;SDS011;45705;55.592;37.460;2022-09-09T14:32:10;5.55;;;1.30;;
58294;SDS011;45705;55.592;37.460;2022-09-09T14:34:37;4.88;;;1.25;;
58294;SDS011;45705;55.592;37.460;2022-09-09T14:37:03;2.40;;;1.45;;
58294;SDS011;45705;55.592;37.460;2022-09-09T14:39:29;2.47;;;1.52;;
58294;SDS011;45705;55.592;37.460;2022-09-09T14:41:55;3.58;;;1.40;;
58294;SDS011;45705;55.592;37.460;2022-09-09T14:44:20;9.23;;;4.50;;
58294;SDS011;45705;55.592;37.460;2022-09-09T14:46:47;6.03;;;3.15;;
58294;SDS011;45705;55.592;37.460;2022-09-09T14:49:15;12.88;;;2.17;;
58294;SDS011;45705;55.592;37.460;2022-09-09T14:51:41;2.88;;;1.67;;
58294;SDS011;45705;55.592;37.460;2022-09-09T14:54:07;3.78;;;1.65;;
58294;SDS011;45705;55.592;37.460;2022-09-09T14:56:33;5.13;;;1.55;;
58294;SDS011;45705;55.592;37.460;2022-09-09T14:59:03;4.97;;;1.73;;
58294;SDS011;45705;55.592;37.460;2022-09-09T15:01:30;3.60;;;1.70;;
58294;SDS011;45705;55.592;37.460;2022-09-09T15:03:57;7.30;;;1.90;;
58294;SDS011;45705;55.592;37.460;2022-09-09T15:06:29;4.13;;;1.77;;
58294;SDS011;45705;55.592;37.460;2022-09-09T15:08:58;3.33;;;1.70;;
58294;SDS011;45705;55.592;37.460;2022-09-09T15:11:26;8.20;;;1.90;;
58294;SDS011;45705;55.592;37.460;2022-09-09T15:13:53;6.78;;;2.40;;
58294;SDS011;45705;55.592;37.460;2022-09-09T15:16:20;4.93;;;1.67;;
58294;SDS011;45705;55.592;37.460;2022-09-09T15:18:50;5.75;;;2.50;;
58294;SDS011;45705;55.592;37.460;2022-09-09T15:21:18;11.27;;;2.42;;
58294;SDS011;45705;55.592;37.460;2022-09-09T15:23:45;3.28;;;2.10;;
58294;SDS011;45705;55.592;37.460;2022-09-09T15:26:12;7.97;;;1.67;;
58294;SDS011;45705;55.592;37.460;2022-09-09T15:28:42;6.97;;;2.20;;
58294;SDS011;45705;55.592;37.460;2022-09-09T15:36:15;6.05;;;2.28;;
58294;SDS011;45705;55.592;37.460;2022-09-09T15:38:42;11.55;;;2.30;;
58294;SDS011;45705;55.592;37.460;2022-09-09T15:41:08;13.50;;;2.47;;
58294;SDS011;45705;55.592;37.460;2022-09-09T15:43:34;7.20;;;2.97;;
58294;SDS011;45705;55.592;37.460;2022-09-09T15:46:02;11.02;;;3.30;;
58294;SDS011;45705;55.592;37.460;2022-09-09T15:48:49;5.97;;;2.90;;
58294;SDS011;45705;55.592;37.460;2022-09-09T15:51:16;8.95;;;2.80;;
58294;SDS011;45705;55.592;37.460;2022-09-09T15:53:42;5.55;;;2.60;;
58294;SDS011;45705;55.592;37.460;2022-09-09T15:56:08;9.98;;;2.88;;
58294;SDS011;45705;55.592;37.460;2022-09-09T15:58:35;10.32;;;2.97;;
58294;SDS011;45705;55.592;37.460;2022-09-09T16:01:07;15.32;;;3.35;;
58294;SDS011;45705;55.592;37.460;2022-09-09T16:03:35;11.90;;;3.08;;
58294;SDS011;45705;55.592;37.460;2022-09-09T16:06:02;11.70;;;3.20;;
58294;SDS011;45705;55.592;37.460;2022-09-09T16:08:33;12.45;;;3.10;;
58294;SDS011;45705;55.592;37.460;2022-09-09T16:13:33;10.57;;;2.90;;
58294;SDS011;45705;55.592;37.460;2022-09-09T16:15:59;11.77;;;3.72;;
58294;SDS011;45705;55.592;37.460;2022-09-09T16:18:25;11.52;;;3.95;;
58294;SDS011;45705;55.592;37.460;2022-09-09T16:20:54;15.70;;;4.80;;
58294;SDS011;45705;55.592;37.460;2022-09-09T16:25:55;12.77;;;3.95;;
58294;SDS011;45705;55.592;37.460;2022-09-09T16:28:21;15.48;;;5.10;;
58294;SDS011;45705;55.592;37.460;2022-09-09T16:30:48;16.00;;;5.20;;
58294;SDS011;45705;55.592;37.460;2022-09-09T16:33:14;21.27;;;5.22;;
58294;SDS011;45705;55.592;37.460;2022-09-09T16:35:42;15.25;;;5.10;;
58294;SDS011;45705;55.592;37.460;2022-09-09T16:38:09;14.20;;;4.70;;
58294;SDS011;45705;55.592;37.460;2022-09-09T16:40:36;19.58;;;5.20;;
58294;SDS011;45705;55.592;37.460;2022-09-09T16:43:03;17.58;;;4.85;;
58294;SDS011;45705;55.592;37.460;2022-09-09T16:45:29;17.63;;;5.00;;
58294;SDS011;45705;55.592;37.460;2022-09-09T16:47:55;15.32;;;5.60;;
58294;SDS011;45705;55.592;37.460;2022-09-09T16:50:21;13.57;;;4.25;;
58294;SDS011;45705;55.592;37.460;2022-09-09T16:52:47;12.70;;;4.70;;
58294;SDS011;45705;55.592;37.460;2022-09-09T16:55:12;11.88;;;4.38;;
58294;SDS011;45705;55.592;37.460;2022-09-09T16:57:39;12.27;;;5.00;;
58294;SDS011;45705;55.592;37.460;2022-09-09T17:00:05;15.45;;;6.45;;
58294;SDS011;45705;55.592;37.460;2022-09-09T17:02:32;17.73;;;6.00;;
58294;SDS011;45705;55.592;37.460;2022-09-09T17:04:58;15.82;;;5.82;;
58294;SDS011;45705;55.592;37.460;2022-09-09T17:07:24;16.08;;;6.93;;
58294;SDS011;45705;55.592;37.460;2022-09-09T17:09:50;24.05;;;9.68;;
58294;SDS011;45705;55.592;37.460;2022-09-09T17:12:16;16.05;;;7.38;;
58294;SDS011;45705;55.592;37.460;2022-09-09T17:14:42;23.23;;;8.85;;
58294;SDS011;45705;55.592;37.460;2022-09-09T17:17:08;18.40;;;7.65;;
58294;SDS011;45705;55.592;37.460;2022-09-09T17:19:34;21.38;;;10.65;;
58294;SDS011;45705;55.592;37.460;2022-09-09T17:21:59;35.58;;;11.00;;
58294;SDS011;45705;55.592;37.460;2022-09-09T17:24:26;28.67;;;11.90;;
58294;SDS011;45705;55.592;37.460;2022-09-09T17:26:54;24.10;;;10.97;;
58294;SDS011;45705;55.592;37.460;2022-09-09T17:29:20;28.90;;;12.85;;
58294;SDS011;45705;55.592;37.460;2022-09-09T17:31:46;30.77;;;14.10;;
58294;SDS011;45705;55.592;37.460;2022-09-09T17:34:12;34.45;;;13.02;;
58294;SDS011;45705;55.592;37.460;2022-09-09T17:36:38;30.33;;;11.05;;
58294;SDS011;45705;55.592;37.460;2022-09-09T17:39:05;21.98;;;10.40;;
58294;SDS011;45705;55.592;37.460;2022-09-09T17:41:35;35.55;;;10.73;;
58294;SDS011;45705;55.592;37.460;2022-09-09T17:44:02;25.45;;;10.32;;
58294;SDS011;45705;55.592;37.460;2022-09-09T17:46:35;31.42;;;11.82;;
58294;SDS011;45705;55.592;37.460;2022-09-09T17:49:04;25.52;;;9.45;;
58294;SDS011;45705;55.592;37.460;2022-09-09T17:51:35;30.05;;;10.88;;
58294;SDS011;45705;55.592;37.460;2022-09-09T17:54:03;40.78;;;17.75;;
58294;SDS011;45705;55.592;37.460;2022-09-09T17:56:38;23.08;;;11.70;;
58294;SDS011;45705;55.592;37.460;2022-09-09T17:59:05;29.83;;;10.25;;
58294;SDS011;45705;55.592;37.460;2022-09-09T18:01:33;22.88;;;9.05;;
58294;SDS011;45705;55.592;37.460;2022-09-09T18:04:02;28.80;;;10.20;;